createdAt,value
2018-11-12T00:00:39.727Z,3.80
2018-11-12T00:03:08.490Z,4.07
2018-11-12T00:05:40.147Z,4.30
2018-11-12T00:08:08.134Z,3.97
2018-11-12T00:10:36.045Z,4.20
2018-11-12T00:13:04.116Z,3.90
2018-11-12T00:15:34.073Z,4.27
2018-11-12T00:18:02.002Z,4.50
2018-11-12T00:20:29.965Z,4.00
2018-11-12T00:22:57.974Z,4.40
2018-11-12T00:25:25.881Z,4.50
2018-11-12T00:27:53.832Z,4.27
2018-11-12T00:30:21.811Z,3.93
2018-11-12T00:32:49.813Z,3.83
2018-11-12T00:35:18.803Z,3.67
2018-11-12T00:37:46.688Z,4.37
2018-11-12T00:40:15.912Z,3.67
2018-11-12T00:42:44.401Z,3.97
2018-11-12T00:45:14.882Z,3.80
2018-11-12T00:47:43.074Z,3.77
2018-11-12T00:50:12.152Z,3.90
2018-11-12T00:52:41.044Z,3.80
2018-11-12T00:55:13.720Z,4.00
2018-11-12T00:57:42.009Z,4.03
2018-11-12T01:00:16.657Z,3.90
2018-11-12T01:02:45.847Z,3.47
2018-11-12T01:05:15.592Z,3.90
2018-11-12T01:07:43.545Z,3.43
2018-11-12T01:10:12.696Z,3.97
2018-11-12T01:12:41.090Z,3.83
2018-11-12T01:15:18.381Z,3.97
2018-11-12T01:17:46.243Z,3.80
2018-11-12T01:20:15.150Z,4.10
2018-11-12T01:22:43.283Z,3.30
2018-11-12T01:25:11.960Z,3.70
2018-11-12T01:27:40.809Z,3.57
2018-11-12T01:30:11.460Z,3.50
2018-11-12T01:32:40.144Z,3.83
2018-11-12T01:35:09.370Z,3.00
2018-11-12T01:37:37.240Z,3.30
2018-11-12T01:40:06.157Z,3.63
2018-11-12T01:42:34.061Z,3.97
2018-11-12T01:45:08.564Z,3.23
2018-11-12T01:47:36.427Z,3.73
2018-11-12T01:50:05.685Z,3.57
2018-11-12T01:52:33.555Z,3.33
2018-11-12T01:55:01.547Z,3.50
2018-11-12T01:57:29.391Z,3.30
2018-11-12T01:59:57.332Z,3.27
2018-11-12T02:02:25.223Z,3.90
2018-11-12T02:04:53.210Z,3.87
2018-11-12T02:07:21.101Z,3.70
2018-11-12T02:09:49.019Z,3.93
2018-11-12T02:12:16.973Z,4.03
2018-11-12T02:14:45.613Z,3.90
2018-11-12T02:17:13.491Z,3.87
2018-11-12T02:19:41.565Z,3.60
2018-11-12T02:22:09.465Z,3.73
2018-11-12T02:24:43.833Z,3.87
2018-11-12T02:27:11.759Z,4.30
2018-11-12T02:29:39.797Z,3.53
2018-11-12T02:32:07.737Z,3.90
2018-11-12T02:34:35.679Z,3.63
2018-11-12T02:37:03.671Z,3.60
2018-11-12T02:39:31.567Z,3.60
2018-11-12T02:41:59.465Z,3.67
2018-11-12T02:44:27.405Z,3.50
2018-11-12T02:46:55.286Z,3.37
2018-11-12T02:49:23.600Z,3.47
2018-11-12T02:51:51.574Z,3.77
2018-11-12T02:54:19.519Z,3.83
2018-11-12T02:56:47.443Z,4.70
2018-11-12T02:59:15.350Z,5.13
2018-11-12T03:01:43.173Z,3.80
2018-11-12T03:04:15.807Z,4.50
2018-11-12T03:06:43.780Z,4.13
2018-11-12T03:09:13.183Z,5.17
2018-11-12T03:11:41.438Z,4.93
2018-11-12T03:14:09.578Z,5.20
2018-11-12T03:16:37.813Z,5.23
2018-11-12T03:19:05.864Z,4.83
2018-11-12T03:21:33.888Z,4.93
2018-11-12T03:24:05.844Z,5.27
2018-11-12T03:26:33.879Z,5.20
2018-11-12T03:29:02.559Z,4.73
2018-11-12T03:31:30.637Z,4.60
2018-11-12T03:34:04.561Z,4.57
2018-11-12T03:36:32.485Z,4.57
2018-11-12T03:39:00.428Z,4.20
2018-11-12T03:41:28.301Z,4.27
2018-11-12T03:43:56.123Z,4.20
2018-11-12T03:46:24.013Z,4.40
2018-11-12T03:48:52.253Z,4.23
2018-11-12T03:51:21.637Z,3.90
2018-11-12T03:53:49.623Z,4.30
2018-11-12T03:56:17.570Z,4.30
2018-11-12T03:58:45.497Z,5.20
2018-11-12T04:01:13.388Z,5.30
2018-11-12T04:03:43.285Z,4.63
2018-11-12T04:06:11.195Z,4.40
2018-11-12T04:08:40.495Z,5.37
2018-11-12T04:11:08.408Z,5.13
2018-11-12T04:13:36.341Z,6.17
2018-11-12T04:16:04.666Z,4.90
2018-11-12T04:18:32.543Z,5.80
2018-11-12T04:21:00.467Z,5.40
2018-11-12T04:23:28.303Z,5.97
2018-11-12T04:25:56.304Z,5.13
2018-11-12T04:28:24.257Z,5.47
2018-11-12T04:30:52.141Z,4.70
2018-11-12T04:33:20.003Z,5.03
2018-11-12T04:35:48.045Z,5.00
2018-11-12T04:38:15.996Z,5.20
2018-11-12T04:40:43.900Z,5.30
2018-11-12T04:43:11.835Z,5.67
2018-11-12T04:45:40.809Z,5.10
2018-11-12T04:48:08.832Z,5.80
2018-11-12T04:50:36.713Z,6.70
2018-11-12T04:53:05.908Z,6.20
2018-11-12T04:55:33.857Z,5.90
2018-11-12T04:58:01.813Z,6.87
2018-11-12T05:00:29.848Z,6.13
2018-11-12T05:02:57.713Z,6.17
2018-11-12T05:05:26.792Z,6.40
2018-11-12T05:07:54.859Z,6.20
2018-11-12T05:10:23.840Z,6.80
2018-11-12T05:12:52.381Z,6.10
2018-11-12T05:15:22.246Z,6.17
2018-11-12T05:17:50.340Z,5.90
2018-11-12T05:20:20.306Z,6.13
2018-11-12T05:22:48.696Z,5.90
2018-11-12T05:25:16.611Z,5.87
2018-11-12T05:27:44.602Z,5.97
2018-11-12T05:30:18.819Z,6.30
2018-11-12T05:32:46.878Z,6.23
2018-11-12T05:35:16.144Z,6.90
2018-11-12T05:37:44.337Z,6.57
2018-11-12T05:40:20.676Z,6.47
2018-11-12T05:42:48.658Z,6.37
2018-11-12T05:45:17.879Z,6.77
2018-11-12T05:47:46.050Z,6.43
2018-11-12T05:50:16.019Z,6.47
2018-11-12T05:52:46.079Z,6.50
2018-11-12T05:55:17.436Z,6.77
2018-11-12T05:57:45.954Z,6.30
2018-11-12T06:00:15.780Z,6.23
2018-11-12T06:02:43.714Z,7.10
2018-11-12T06:05:12.781Z,7.43
2018-11-12T06:07:40.789Z,7.20
2018-11-12T06:10:15.325Z,6.77
2018-11-12T06:12:43.728Z,11.90
2018-11-12T06:15:19.222Z,10.00
2018-11-12T06:17:47.905Z,27.27
2018-11-12T06:20:19.754Z,23.77
2018-11-12T06:22:48.662Z,19.43
2018-11-12T06:25:26.650Z,16.10
2018-11-12T06:27:54.742Z,12.63
2018-11-12T06:30:24.582Z,14.10
2018-11-12T06:32:52.630Z,13.20
2018-11-12T06:35:32.689Z,9.43
2018-11-12T06:38:00.728Z,7.43
2018-11-12T06:40:28.967Z,7.87
2018-11-12T06:42:57.628Z,7.87
2018-11-12T06:45:26.778Z,7.50
2018-11-12T06:47:55.492Z,8.30
2018-11-12T06:50:24.844Z,7.10
2018-11-12T06:52:52.889Z,7.97
2018-11-12T06:55:24.635Z,7.97
2018-11-12T06:57:53.828Z,7.60
2018-11-12T07:00:26.141Z,7.17
2018-11-12T07:02:54.228Z,7.97
2018-11-12T07:05:32.554Z,7.83
2018-11-12T07:08:01.575Z,7.43
2018-11-12T07:10:29.962Z,8.17
2018-11-12T07:12:59.605Z,9.10
2018-11-12T07:15:28.917Z,8.87
2018-11-12T07:17:57.493Z,8.50
2018-11-12T07:20:26.448Z,8.50
2018-11-12T07:22:55.716Z,9.50
2018-11-12T07:25:27.047Z,9.07
2018-11-12T07:27:55.066Z,9.27
2018-11-12T07:30:24.374Z,10.80
2018-11-12T07:32:53.957Z,10.83
2018-11-12T07:35:22.818Z,10.30
2018-11-12T07:37:55.000Z,12.77
2018-11-12T07:40:23.400Z,12.70
2018-11-12T07:42:51.305Z,12.23
2018-11-12T07:45:21.352Z,11.40
2018-11-12T07:47:50.175Z,12.33
2018-11-12T07:50:22.111Z,12.03
2018-11-12T07:52:50.123Z,11.03
2018-11-12T07:55:23.098Z,10.63
2018-11-12T07:57:52.119Z,10.67
2018-11-12T08:00:21.919Z,11.03
2018-11-12T08:02:50.985Z,13.10
2018-11-12T08:05:19.006Z,16.10
2018-11-12T08:07:47.355Z,11.73
2018-11-12T08:10:16.758Z,10.27
2018-11-12T08:12:45.535Z,10.90
2018-11-12T08:15:16.636Z,11.27
2018-11-12T08:17:44.706Z,11.50
2018-11-12T08:20:20.640Z,12.20
2018-11-12T08:22:49.591Z,11.63
2018-11-12T08:25:17.532Z,9.93
2018-11-12T08:27:46.028Z,9.87
2018-11-12T08:30:15.950Z,11.07
2018-11-12T08:32:44.897Z,10.63
2018-11-12T08:35:18.206Z,10.37
2018-11-12T08:37:46.489Z,9.37
2018-11-12T08:40:16.298Z,8.70
2018-11-12T08:42:44.447Z,9.70
2018-11-12T08:45:16.167Z,10.17
2018-11-12T08:47:45.706Z,11.57
2018-11-12T08:50:15.703Z,9.13
2018-11-12T08:52:44.755Z,10.20
2018-11-12T08:55:27.871Z,11.10
2018-11-12T08:57:58.394Z,10.50
2018-11-12T09:00:26.734Z,12.37
2018-11-12T09:02:54.833Z,10.30
2018-11-12T09:05:31.439Z,11.00
2018-11-12T09:08:01.639Z,10.93
2018-11-12T09:10:31.030Z,10.20
2018-11-12T09:12:59.368Z,9.33
2018-11-12T09:15:28.305Z,9.50
2018-11-12T09:17:56.346Z,9.00
2018-11-12T09:20:25.554Z,8.60
2018-11-12T09:22:53.758Z,8.47
2018-11-12T09:25:26.214Z,8.77
2018-11-12T09:27:54.162Z,8.53
2018-11-12T09:30:24.422Z,8.13
2018-11-12T09:32:52.597Z,8.67
2018-11-12T09:35:21.887Z,8.30
2018-11-12T09:37:50.686Z,9.03
2018-11-12T09:40:20.376Z,10.10
2018-11-12T09:42:48.710Z,10.33
2018-11-12T09:45:16.672Z,9.30
2018-11-12T09:47:45.057Z,9.20
2018-11-12T09:50:17.252Z,8.93
2018-11-12T09:52:46.623Z,8.60
2018-11-12T09:55:18.698Z,7.83
2018-11-12T09:57:48.098Z,8.43
2018-11-12T10:00:17.402Z,7.40
2018-11-12T10:02:46.772Z,8.13
2018-11-12T10:05:27.547Z,7.43
2018-11-12T10:07:58.477Z,5.10
2018-11-12T10:10:32.412Z,4.90
2018-11-12T10:12:59.941Z,5.13
2018-11-12T10:15:41.212Z,5.60
2018-11-12T10:18:09.206Z,6.10
2018-11-12T10:20:35.665Z,5.20
2018-11-12T10:23:05.364Z,4.67
2018-11-12T10:37:21.860Z,4.00
2018-11-12T10:39:50.178Z,4.53
2018-11-12T10:42:18.454Z,4.00
2018-11-12T10:44:46.472Z,3.60
2018-11-12T10:47:14.428Z,3.80
2018-11-12T10:49:42.375Z,4.10
2018-11-12T10:52:10.316Z,3.17
2018-11-12T10:54:44.172Z,3.00
2018-11-12T10:57:14.414Z,3.07
2018-11-12T10:59:42.360Z,3.40
2018-11-12T11:02:15.760Z,3.20
2018-11-12T11:04:49.215Z,3.13
2018-11-12T11:07:17.214Z,3.00
2018-11-12T11:09:45.135Z,3.07
2018-11-12T11:12:13.034Z,3.37
2018-11-12T11:14:45.758Z,3.33
2018-11-12T11:17:13.722Z,2.80
2018-11-12T11:19:41.669Z,2.80
2018-11-12T11:22:10.429Z,2.90
2018-11-12T11:24:42.716Z,2.57
2018-11-12T11:27:12.460Z,3.10
2018-11-12T11:29:40.454Z,3.20
2018-11-12T11:32:08.442Z,3.27
2018-11-12T11:34:36.420Z,3.33
2018-11-12T11:37:04.596Z,3.20
2018-11-12T11:39:32.565Z,3.50
2018-11-12T11:42:00.574Z,3.47
2018-11-12T11:44:29.817Z,3.30
2018-11-12T11:46:57.763Z,2.87
2018-11-12T11:49:25.856Z,2.60
2018-11-12T11:51:53.784Z,2.20
2018-11-12T11:54:23.916Z,1.80
2018-11-12T11:56:52.547Z,1.40
2018-11-12T11:59:20.478Z,1.27
2018-11-12T12:01:48.473Z,1.20
2018-11-12T12:04:20.021Z,0.60
2018-11-12T12:06:48.047Z,0.70
2018-11-12T12:09:16.188Z,0.70
2018-11-12T12:11:44.224Z,0.60
2018-11-12T12:14:16.612Z,0.80
2018-11-12T12:16:44.576Z,0.70
2018-11-12T12:19:13.440Z,0.70
2018-11-12T12:21:41.426Z,0.80
2018-11-12T12:24:09.340Z,1.10
2018-11-12T12:26:37.296Z,1.00
2018-11-12T12:29:05.800Z,0.90
2018-11-12T12:31:33.891Z,1.00
2018-11-12T12:34:09.993Z,1.17
2018-11-12T12:36:38.549Z,1.20
2018-11-12T12:39:10.353Z,1.20
2018-11-12T12:41:38.335Z,1.23
2018-11-12T12:44:06.442Z,1.13
2018-11-12T12:46:35.370Z,1.33
2018-11-12T12:49:03.613Z,1.57
2018-11-12T12:51:31.740Z,1.70
2018-11-12T12:54:09.521Z,1.80
2018-11-12T12:56:37.747Z,2.00
2018-11-12T12:59:05.710Z,2.10
2018-11-12T13:01:33.745Z,2.30
2018-11-12T13:04:01.701Z,2.43
2018-11-12T13:06:29.793Z,2.40
2018-11-12T13:08:57.839Z,2.10
2018-11-12T13:11:25.866Z,2.23
2018-11-12T13:16:51.155Z,2.30
2018-11-12T13:19:19.562Z,2.40
2018-11-12T13:21:48.017Z,2.93
2018-11-12T13:24:17.132Z,2.70
2018-11-12T13:26:45.383Z,2.63
2018-11-12T13:29:13.550Z,2.60
2018-11-12T13:31:41.744Z,2.70
2018-11-12T13:34:21.783Z,3.47
2018-11-12T13:36:49.685Z,2.80
2018-11-12T13:39:17.831Z,2.90
2018-11-12T13:41:45.915Z,2.73
2018-11-12T13:44:20.361Z,2.70
2018-11-12T13:46:52.056Z,2.60
2018-11-12T13:49:20.324Z,1.93
2018-11-12T13:51:48.502Z,1.87
2018-11-12T13:54:22.473Z,1.97
2018-11-12T13:56:50.744Z,1.90
2018-11-12T13:59:18.787Z,1.97
2018-11-12T14:01:46.957Z,1.80
2018-11-12T14:04:14.991Z,1.80
2018-11-12T14:06:43.001Z,2.20
2018-11-12T14:09:12.152Z,2.13
2018-11-12T14:11:40.239Z,2.20
2018-11-12T14:14:18.880Z,2.40
2018-11-12T14:16:46.885Z,2.40
2018-11-12T14:19:14.957Z,2.20
2018-11-12T14:21:43.345Z,2.20
2018-11-12T14:24:15.029Z,2.10
2018-11-12T14:26:43.320Z,2.13
2018-11-12T14:29:11.735Z,2.10
2018-11-12T14:31:40.280Z,13.43
2018-11-12T14:34:08.333Z,21.93
2018-11-12T14:36:36.519Z,17.50
2018-11-12T14:39:07.689Z,4.57
2018-11-12T14:41:35.800Z,10.80
2018-11-12T14:44:06.416Z,13.43
2018-11-12T14:46:34.616Z,4.67
2018-11-12T14:49:02.772Z,2.63
2018-11-12T14:51:30.957Z,3.20
2018-11-12T14:54:11.613Z,3.00
2018-11-12T14:56:39.780Z,2.47
2018-11-12T14:59:09.067Z,2.40
2018-11-12T15:01:37.199Z,2.20
2018-11-12T15:04:11.108Z,2.00
2018-11-12T15:06:39.123Z,2.60
2018-11-12T15:09:10.003Z,2.90
2018-11-12T15:11:38.446Z,2.60
2018-11-12T15:14:07.381Z,2.93
2018-11-12T15:16:35.535Z,2.77
2018-11-12T15:19:04.983Z,2.93
2018-11-12T15:21:33.133Z,2.60
2018-11-12T15:24:03.485Z,2.70
2018-11-12T15:26:33.236Z,2.23
2018-11-12T15:29:02.326Z,2.40
2018-11-12T15:31:30.712Z,2.40
2018-11-12T15:34:00.430Z,2.37
2018-11-12T15:36:29.535Z,5.97
2018-11-12T15:38:57.671Z,7.67
2018-11-12T15:41:25.952Z,5.43
2018-11-12T15:43:56.080Z,9.30
2018-11-12T15:46:24.311Z,11.17
2018-11-12T15:48:52.446Z,8.10
2018-11-12T15:51:21.030Z,6.53
2018-11-12T15:53:50.103Z,7.00
2018-11-12T15:56:18.314Z,6.53
2018-11-12T15:58:46.582Z,7.70
2018-11-12T16:01:14.810Z,9.80
2018-11-12T16:03:50.913Z,9.40
2018-11-12T16:06:19.180Z,9.77
2018-11-12T16:08:47.440Z,9.93
2018-11-12T16:11:15.566Z,8.63
2018-11-12T16:13:49.665Z,8.10
2018-11-12T16:16:17.879Z,7.90
2018-11-12T16:18:46.027Z,9.30
2018-11-12T16:21:14.297Z,6.63
2018-11-12T16:23:42.301Z,5.40
2018-11-12T16:26:11.109Z,5.40
2018-11-12T16:28:39.177Z,4.87
2018-11-12T16:31:07.455Z,5.10
2018-11-12T16:33:39.658Z,4.93
2018-11-12T16:36:08.950Z,4.80
2018-11-12T16:38:37.304Z,6.07
2018-11-12T16:41:20.626Z,6.63
2018-11-12T16:43:48.747Z,5.10
2018-11-12T16:46:18.907Z,5.70
2018-11-12T16:48:48.577Z,6.13
2018-11-12T16:51:23.616Z,6.73
2018-11-12T16:53:52.914Z,7.87
2018-11-12T16:56:21.772Z,7.37
2018-11-12T16:58:49.978Z,8.37
2018-11-12T17:01:18.171Z,8.40
2018-11-12T17:03:48.352Z,9.43
2018-11-12T17:06:16.578Z,10.70
2018-11-12T17:08:44.738Z,9.80
2018-11-12T17:11:12.952Z,9.97
2018-11-12T17:13:42.132Z,10.77
2018-11-12T17:16:11.930Z,10.97
2018-11-12T17:18:40.064Z,11.70
2018-11-12T17:21:08.128Z,13.13
2018-11-12T17:23:40.184Z,12.40
2018-11-12T17:26:08.753Z,16.03
2018-11-12T17:28:36.882Z,16.10
2018-11-12T17:31:05.173Z,13.73
2018-11-12T17:33:53.973Z,13.17
2018-11-12T17:36:22.300Z,11.07
2018-11-12T17:38:50.380Z,11.50
2018-11-12T17:41:19.011Z,10.90
2018-11-12T17:43:48.988Z,11.43
2018-11-12T17:46:17.452Z,11.53
2018-11-12T17:48:45.533Z,12.37
2018-11-12T17:51:20.414Z,14.23
2018-11-12T17:53:52.519Z,21.90
2018-11-12T17:56:20.515Z,25.10
2018-11-12T17:58:48.642Z,19.77
2018-11-12T18:01:16.738Z,16.23
2018-11-12T18:06:12.108Z,13.37
2018-11-12T18:08:40.158Z,13.70
2018-11-12T18:11:11.092Z,14.13
2018-11-12T18:13:39.402Z,14.30
2018-11-12T18:16:07.582Z,13.33
2018-11-12T18:18:35.755Z,12.43
2018-11-12T18:21:03.907Z,12.33
2018-11-12T18:23:32.763Z,12.47
2018-11-12T18:26:01.383Z,12.57
2018-11-12T18:28:29.568Z,12.70
2018-11-12T18:30:57.743Z,13.50
2018-11-12T18:33:25.775Z,12.60
2018-11-12T18:38:39.005Z,10.87
2018-11-12T18:41:07.235Z,10.77
2018-11-12T18:43:36.270Z,9.50
2018-11-12T18:46:05.007Z,10.30
2018-11-12T18:48:34.052Z,10.10
2018-11-12T18:51:02.175Z,12.73
2018-11-12T18:53:30.200Z,11.07
2018-11-12T18:55:58.331Z,10.80
2018-11-12T18:58:26.329Z,9.80
2018-11-12T19:00:54.244Z,10.33
2018-11-12T19:03:22.227Z,9.77
2018-11-12T19:05:56.671Z,9.53
2018-11-12T19:08:24.734Z,11.37
2018-11-12T19:10:52.729Z,9.97
2018-11-12T19:13:20.940Z,9.43
2018-11-12T19:15:48.980Z,8.77
2018-11-12T19:18:17.611Z,7.80
2018-11-12T19:20:46.007Z,9.00
2018-11-12T19:23:14.102Z,8.43
2018-11-12T19:25:43.429Z,8.20
2018-11-12T19:28:11.447Z,7.70
2018-11-12T19:30:40.507Z,7.93
2018-11-12T19:33:09.842Z,10.07
2018-11-12T19:35:45.331Z,9.83
2018-11-12T19:38:13.354Z,9.67
2018-11-12T19:40:41.344Z,8.57
2018-11-12T19:43:09.412Z,8.53
2018-11-12T19:45:38.462Z,10.23
2018-11-12T19:48:06.546Z,9.53
2018-11-12T19:50:34.834Z,9.50
2018-11-12T19:53:03.078Z,10.97
2018-11-12T19:55:38.821Z,10.40
2018-11-12T19:58:06.832Z,11.17
2018-11-12T20:00:34.884Z,9.47
2018-11-12T20:03:03.043Z,7.90
2018-11-12T20:05:31.952Z,7.83
2018-11-12T20:08:00.071Z,8.07
2018-11-12T20:10:29.195Z,7.90
2018-11-12T20:12:57.323Z,8.00
2018-11-12T20:15:29.922Z,7.80
2018-11-12T20:17:57.923Z,8.07
2018-11-12T20:20:27.885Z,9.30
2018-11-12T20:22:55.859Z,7.73
2018-11-12T20:25:23.943Z,7.47
2018-11-12T20:27:53.027Z,8.37
2018-11-12T20:30:27.752Z,7.90
2018-11-12T20:32:55.875Z,8.03
2018-11-12T20:35:23.959Z,6.67
2018-11-12T20:37:52.034Z,6.60
2018-11-12T20:40:20.112Z,7.47
2018-11-12T20:42:49.559Z,7.10
2018-11-12T20:45:20.835Z,7.17
2018-11-12T20:47:50.249Z,7.30
2018-11-12T20:50:18.349Z,6.77
2018-11-12T20:52:46.506Z,6.60
2018-11-12T20:55:15.579Z,6.57
2018-11-12T20:57:43.850Z,6.87
2018-11-12T21:02:39.554Z,6.63
2018-11-12T21:05:10.371Z,6.73
2018-11-12T21:07:38.357Z,6.50
2018-11-12T21:10:07.606Z,7.07
2018-11-12T21:12:37.134Z,7.13
2018-11-12T21:15:17.987Z,6.80
2018-11-12T21:17:46.346Z,6.70
2018-11-12T21:20:16.811Z,6.97
2018-11-12T21:22:44.811Z,6.73
2018-11-12T21:25:27.616Z,7.17
2018-11-12T21:27:56.292Z,7.03
2018-11-12T21:30:26.234Z,7.23
2018-11-12T21:32:54.276Z,6.87
2018-11-12T21:35:22.310Z,6.97
2018-11-12T21:37:51.694Z,7.23
2018-11-12T21:40:21.957Z,7.83
2018-11-12T21:42:50.067Z,7.50
2018-11-12T21:45:19.701Z,7.57
2018-11-12T21:47:47.659Z,7.80
2018-11-12T21:50:17.033Z,8.23
2018-11-12T21:52:45.005Z,8.03
2018-11-12T21:55:22.830Z,8.30
2018-11-12T21:57:51.509Z,7.60
2018-11-12T22:00:21.943Z,8.10
2018-11-12T22:02:51.476Z,7.20
2018-11-12T22:05:19.653Z,8.50
2018-11-12T22:07:47.690Z,7.97
2018-11-12T22:10:16.553Z,8.57
2018-11-12T22:12:45.921Z,8.00
2018-11-12T22:15:19.182Z,8.30
2018-11-12T22:17:47.790Z,8.60
2018-11-12T22:20:18.199Z,7.87
2018-11-12T22:22:46.308Z,8.10
2018-11-12T22:25:24.055Z,8.10
2018-11-12T22:27:52.717Z,7.93
2018-11-12T22:30:22.928Z,7.83
2018-11-12T22:32:51.927Z,7.80
2018-11-12T22:35:23.653Z,7.40
2018-11-12T22:37:51.656Z,7.13
2018-11-12T22:40:20.451Z,6.90
2018-11-12T22:42:49.503Z,7.67
2018-11-12T22:45:24.424Z,7.40
2018-11-12T22:47:53.377Z,7.57
2018-11-12T22:50:21.489Z,6.80
2018-11-12T22:52:49.546Z,6.90
2018-11-12T22:55:18.334Z,6.93
2018-11-12T22:57:46.354Z,6.63
2018-11-12T23:00:23.821Z,7.63
2018-11-12T23:02:52.073Z,7.20
2018-11-12T23:05:37.079Z,7.77
2018-11-12T23:08:05.026Z,8.00
2018-11-12T23:10:33.088Z,8.90
2018-11-12T23:13:01.010Z,9.17
2018-11-12T23:15:29.031Z,8.60
2018-11-12T23:17:57.000Z,9.17
2018-11-12T23:20:27.280Z,9.90
2018-11-12T23:22:55.267Z,10.27
2018-11-12T23:25:29.128Z,10.43
2018-11-12T23:27:57.107Z,10.63
2018-11-12T23:30:25.401Z,10.20
2018-11-12T23:32:53.580Z,10.77
2018-11-12T23:35:27.272Z,11.97
2018-11-12T23:37:55.347Z,11.67
2018-11-12T23:40:23.345Z,11.40
2018-11-12T23:42:51.581Z,12.03
2018-11-12T23:45:25.372Z,11.93
2018-11-12T23:47:53.341Z,11.53
2018-11-12T23:50:22.055Z,12.20
2018-11-12T23:52:50.913Z,11.27
2018-11-12T23:55:19.552Z,11.43
2018-11-12T23:57:51.595Z,11.57
